Casper, WY (82604)

6:49 PM MDT on September 19, 2014 (GMT -0600)
North of Casper, WY | Change Station
CLOSE
Current Station
Personal Weather Station
Location: Bar Nunn, WY
Elevation: 5276 ft
Nearby Weather Stations

Elev 5276 ft 42.91 °N, 106.35 °W | Updated 4 minutes ago

Clear
Clear
77.5 °F
Feels Like 77 °F
N
0.0
Wind Variable Wind from NNE
Gusts 7.6 mph

Today
High -- | Low -- °F
--% Chance of Precip.
Yesterday
High -- | Low -- °F
Precip. -- in
6:49 AM 7:08 PM
Waning Crescent, 16% visible
Pressure 29.77 in
Visibility 10.0 miles
Clouds Clear
Heat Index 77 °F
Dew Point 35 °F
Humidity 22%
Rainfall 0.00 in
Snow Depth 0 in , 0 in , 0 in
UV 1 out of 12
Pollen 5.80 out of 12
Air Quality Not available.
Flu Activity Not available.
METAR KCPR 192353Z 31013KT 10SM CLR 27/M02 A2997 RMK AO2 SLP081 T02721017 10294 20261 55001

More Conditions Fewer Conditions

Pressure 29.77 in
Visibility 10.0 miles
Clouds Clear
Heat Index 77 °F
Dew Point 35 °F
Humidity 22%
Rainfall 0.00 in
Snow Depth 0 in , 0 in , 0 in
UV 1 out of 12
Pollen 5.80 out of 12
Air Quality Not available.
Flu Activity Not available.
METAR KCPR 192353Z 31013KT 10SM CLR 27/M02 A2997 RMK AO2 SLP081 T02721017 10294 20261 55001

More Conditions Fewer Conditions

10-Day Weather Forecast

Almanac

Astronomy

Sep. 19, 2014 Rise Set
Actual Time 6:49 AM MDT 7:08 PM MDT
Civil Twilight 6:21 AM MDT 7:36 PM MDT
Nautical Twilight 5:48 AM MDT 8:09 PM MDT
Astronomical Twilight 5:13 AM MDT 8:43 PM MDT
Moon 2:32 AM MDT (9/19) 4:42 PM MDT (9/19)
Length of Visible Light 13h 15m
Length of Day
12h 18m
Tomorrow will be 2m 53s shorter.
Waning Crescent, 16% of the Moon is Illuminated
Today
Waning Crescent
Sep 24
New
Oct 1
First Quarter
Oct 8
Full
Oct 15
Last Quarter

Today's Extremes

State Highs State Lows

Community

WunderPhotos

Upload Photos

1,754,744 photos uploaded!

WunderBlogs® & News

Nearby

Snow Depth

Station Depth Elevation
Gros Ventre Summit 0 in 8750 ft
Spring Creek Divide 0 in 9000 ft
Kendall R.S. 0 in 7740 ft
Loomis Park 0 in 8240 ft
Willow Creek 2 in 8450 ft

Earthquake Activity

City Distance Mag. Time & Date
No recent earthquake activity has been reported nearby.
Minimum magnitude displayed is 2.5.

Coastal Water Temperatures

Place Temperature
No Stations Reporting

Nearby Weather Stations